createdAt,value
2022-09-26T00:00:43.070Z,66.20
2022-09-26T00:02:44.995Z,66.10
2022-09-26T00:04:46.812Z,66.10
2022-09-26T00:06:48.726Z,66.10
2022-09-26T00:08:50.691Z,66.10
2022-09-26T00:10:57.985Z,66.20
2022-09-26T00:13:01.300Z,66.20
2022-09-26T00:15:03.201Z,66.30
2022-09-26T00:17:04.863Z,66.30
2022-09-26T00:19:06.930Z,66.20
2022-09-26T00:21:10.616Z,66.10
2022-09-26T00:23:12.499Z,66.10
2022-09-26T00:25:14.078Z,66.10
2022-09-26T00:27:15.683Z,66.00
2022-09-26T00:29:17.330Z,66.10
2022-09-26T00:31:23.254Z,66.20
2022-09-26T00:33:25.805Z,66.10
2022-09-26T00:35:27.376Z,66.20
2022-09-26T00:37:28.975Z,66.20
2022-09-26T00:39:30.609Z,66.20
2022-09-26T00:41:32.189Z,66.20
2022-09-26T00:43:35.529Z,66.20
2022-09-26T00:45:37.232Z,66.20
2022-09-26T00:47:38.850Z,66.20
2022-09-26T00:49:42.377Z,66.20
2022-09-26T00:51:47.024Z,66.20
2022-09-26T00:53:50.331Z,66.40
2022-09-26T00:55:54.739Z,66.40
2022-09-26T00:58:06.040Z,66.50
2022-09-26T01:00:10.137Z,66.40
2022-09-26T01:02:12.146Z,66.50
2022-09-26T01:04:14.250Z,66.70
2022-09-26T01:06:16.692Z,66.80
2022-09-26T01:08:21.733Z,66.80
2022-09-26T01:10:24.524Z,67.00
2022-09-26T01:12:26.310Z,67.10
2022-09-26T01:14:28.152Z,66.90
2022-09-26T01:16:29.973Z,66.80
2022-09-26T01:18:31.609Z,66.80
2022-09-26T01:20:33.217Z,67.00
2022-09-26T01:22:54.506Z,67.10
2022-09-26T01:24:59.148Z,67.00
2022-09-26T01:27:07.863Z,67.00
2022-09-26T01:29:25.649Z,67.00
2022-09-26T01:31:33.215Z,66.90
2022-09-26T01:33:43.872Z,66.70
2022-09-26T01:35:51.449Z,66.70
2022-09-26T01:38:12.223Z,66.60
2022-09-26T01:40:16.979Z,66.90
2022-09-26T01:42:19.011Z,67.00
2022-09-26T01:44:21.618Z,66.90
2022-09-26T01:46:26.356Z,66.80
2022-09-26T01:48:32.451Z,66.90
2022-09-26T01:50:40.645Z,66.80
2022-09-26T01:52:51.763Z,66.90
2022-09-26T01:54:54.460Z,66.90
2022-09-26T01:56:58.319Z,67.00
2022-09-26T01:59:05.260Z,67.00
2022-09-26T02:01:09.856Z,66.90
2022-09-26T02:03:14.916Z,67.00
2022-09-26T02:05:42.941Z,67.10
2022-09-26T02:07:50.482Z,67.40
2022-09-26T02:09:59.190Z,67.40
2022-09-26T02:12:03.961Z,67.50
2022-09-26T02:14:27.672Z,67.40
2022-09-26T02:16:37.357Z,67.60
2022-09-26T02:18:53.915Z,67.60
2022-09-26T02:20:58.088Z,67.70
2022-09-26T02:23:00.694Z,67.70
2022-09-26T02:25:03.096Z,67.60
2022-09-26T02:27:06.752Z,67.50
2022-09-26T02:29:08.853Z,67.50
2022-09-26T02:31:12.701Z,67.40
2022-09-26T02:33:14.587Z,67.40
2022-09-26T02:35:35.214Z,67.60
2022-09-26T02:37:38.724Z,67.90
2022-09-26T02:39:41.561Z,68.00
2022-09-26T02:42:04.931Z,67.80
2022-09-26T02:44:12.585Z,67.70
2022-09-26T02:46:20.618Z,67.50
2022-09-26T02:48:22.265Z,67.30
2022-09-26T02:50:37.353Z,67.20
2022-09-26T02:52:58.484Z,67.20
2022-09-26T02:55:12.646Z,67.30
2022-09-26T02:57:26.930Z,67.50
2022-09-26T02:59:35.218Z,67.50
2022-09-26T03:01:43.597Z,67.40
2022-09-26T03:04:01.443Z,67.20
2022-09-26T03:06:06.420Z,67.10
2022-09-26T03:08:30.982Z,67.10
2022-09-26T03:10:33.824Z,67.00
2022-09-26T03:12:36.637Z,67.10
2022-09-26T03:14:39.778Z,67.20
2022-09-26T03:16:44.139Z,67.00
2022-09-26T03:18:50.059Z,67.00
2022-09-26T03:20:54.084Z,67.20
2022-09-26T03:22:55.901Z,67.20
2022-09-26T03:24:59.676Z,67.30
2022-09-26T03:27:05.048Z,67.30
2022-09-26T03:29:08.710Z,67.10
2022-09-26T03:31:11.311Z,66.80
2022-09-26T03:33:23.417Z,66.80
2022-09-26T03:35:25.051Z,66.90
2022-09-26T03:37:26.788Z,67.00
2022-09-26T03:39:29.371Z,67.00
2022-09-26T03:41:45.693Z,66.80
2022-09-26T03:43:55.749Z,66.80
2022-09-26T03:46:02.738Z,66.70
2022-09-26T03:48:06.091Z,66.70
2022-09-26T03:50:08.019Z,66.80
2022-09-26T03:52:12.893Z,66.90
2022-09-26T03:54:15.356Z,66.80
2022-09-26T03:56:18.234Z,66.80
2022-09-26T03:58:19.883Z,67.00
2022-09-26T04:00:21.571Z,67.00
2022-09-26T04:02:24.049Z,66.80
2022-09-26T04:04:39.845Z,66.80
2022-09-26T04:06:43.143Z,66.90
2022-09-26T04:08:44.800Z,66.70
2022-09-26T04:10:46.428Z,66.90
2022-09-26T04:12:48.631Z,66.90
2022-09-26T04:14:50.661Z,67.00
2022-09-26T04:16:53.201Z,67.10
2022-09-26T04:19:00.889Z,67.10
2022-09-26T04:21:10.030Z,67.10
2022-09-26T04:23:13.440Z,67.10
2022-09-26T04:25:15.120Z,67.00
2022-09-26T04:27:16.800Z,66.80
2022-09-26T04:29:20.584Z,66.70
2022-09-26T04:31:37.753Z,66.60
2022-09-26T04:33:45.131Z,66.50
2022-09-26T04:35:48.473Z,66.50
2022-09-26T04:37:50.580Z,66.50
2022-09-26T04:39:52.339Z,66.50
2022-09-26T04:41:55.149Z,66.80
2022-09-26T04:43:57.841Z,67.60
2022-09-26T04:45:59.553Z,66.80
2022-09-26T04:48:01.511Z,67.60
2022-09-26T04:50:32.107Z,66.70
2022-09-26T04:52:41.597Z,66.60
2022-09-26T04:54:44.655Z,66.60
2022-09-26T04:56:46.483Z,66.50
2022-09-26T04:58:48.063Z,66.40
2022-09-26T05:00:50.429Z,66.50
2022-09-26T05:03:02.800Z,66.30
2022-09-26T05:05:06.759Z,66.50
2022-09-26T05:07:08.386Z,66.70
2022-09-26T05:09:10.122Z,66.80
2022-09-26T05:11:32.365Z,66.80
2022-09-26T05:13:34.109Z,67.00
2022-09-26T05:15:39.744Z,67.10
2022-09-26T05:17:44.947Z,67.00
2022-09-26T05:19:46.611Z,66.80
2022-09-26T05:21:56.938Z,66.80
2022-09-26T05:24:17.162Z,66.80
2022-09-26T05:26:23.906Z,66.70
2022-09-26T05:28:26.238Z,66.50
2022-09-26T05:30:31.163Z,66.70
2022-09-26T05:32:33.083Z,66.80
2022-09-26T05:34:34.883Z,66.70
2022-09-26T05:36:39.616Z,66.60
2022-09-26T05:38:41.298Z,66.70
2022-09-26T05:40:58.413Z,66.80
2022-09-26T05:43:02.119Z,66.80
2022-09-26T05:45:04.416Z,67.00
2022-09-26T05:47:07.204Z,67.30
2022-09-26T05:49:11.707Z,67.40
2022-09-26T05:51:14.870Z,67.40
2022-09-26T05:53:19.337Z,67.30
2022-09-26T05:55:20.924Z,68.30
2022-09-26T05:57:52.509Z,67.40
2022-09-26T05:59:55.784Z,67.30
2022-09-26T06:02:00.637Z,67.40
2022-09-26T06:04:18.064Z,67.40
2022-09-26T06:06:39.758Z,67.40
2022-09-26T06:08:46.626Z,67.40
2022-09-26T06:11:15.578Z,67.50
2022-09-26T06:13:17.243Z,67.60
2022-09-26T06:15:25.944Z,67.60
2022-09-26T06:17:27.646Z,67.70
2022-09-26T06:19:29.292Z,67.70
2022-09-26T06:21:30.940Z,67.80
2022-09-26T06:23:40.839Z,67.80
2022-09-26T06:25:43.660Z,67.80
2022-09-26T06:27:45.259Z,67.90
2022-09-26T06:29:46.872Z,67.90
2022-09-26T06:31:48.582Z,67.80
2022-09-26T06:34:01.436Z,67.80
2022-09-26T06:36:18.642Z,67.90
2022-09-26T06:38:20.284Z,67.90
2022-09-26T06:40:21.971Z,67.80
2022-09-26T06:42:25.160Z,68.00
2022-09-26T06:44:45.345Z,68.00
2022-09-26T06:47:00.945Z,68.00
2022-09-26T06:49:08.499Z,68.10
2022-09-26T06:51:19.936Z,68.00
2022-09-26T06:53:22.094Z,67.60
2022-09-26T06:55:23.691Z,67.80
2022-09-26T06:57:25.392Z,68.20
2022-09-26T06:59:27.054Z,68.50
2022-09-26T07:01:41.866Z,68.60
2022-09-26T07:04:02.935Z,68.80
2022-09-26T07:06:09.625Z,68.80
2022-09-26T07:08:11.400Z,68.60
2022-09-26T07:10:13.767Z,68.60
2022-09-26T07:12:28.356Z,68.70
2022-09-26T07:14:31.021Z,69.80
2022-09-26T07:16:39.144Z,69.20
2022-09-26T07:19:16.925Z,69.50
2022-09-26T07:21:39.228Z,69.50
2022-09-26T07:23:44.165Z,69.40
2022-09-26T07:25:47.284Z,69.40
2022-09-26T07:27:49.974Z,69.50
2022-09-26T07:29:51.852Z,69.40
2022-09-26T07:31:55.651Z,69.40
2022-09-26T07:34:24.920Z,69.20
2022-09-26T07:36:26.587Z,69.10
2022-09-26T07:38:29.120Z,69.00
2022-09-26T07:40:31.215Z,68.90
2022-09-26T07:42:32.886Z,68.90
2022-09-26T07:45:19.609Z,69.00
2022-09-26T07:47:15.502Z,68.90
2022-09-26T07:49:36.262Z,68.70
2022-09-26T07:51:46.028Z,68.60
2022-09-26T07:53:52.517Z,68.80
2022-09-26T07:56:12.998Z,68.50
2022-09-26T07:58:33.764Z,69.20
2022-09-26T08:01:12.593Z,69.40
2022-09-26T08:03:32.983Z,68.70
2022-09-26T08:05:37.891Z,68.40
2022-09-26T08:07:39.610Z,68.40
2022-09-26T08:10:07.560Z,68.70
2022-09-26T08:12:28.085Z,68.80
2022-09-26T08:14:41.896Z,68.80
2022-09-26T08:16:54.460Z,68.80
2022-09-26T08:18:56.162Z,68.70
2022-09-26T08:20:59.403Z,68.70
2022-09-26T08:23:01.517Z,69.00
2022-09-26T08:25:06.754Z,68.70
2022-09-26T08:27:48.424Z,68.50
2022-09-26T08:29:51.030Z,68.40
2022-09-26T08:31:53.421Z,68.40
2022-09-26T08:33:55.052Z,68.30
2022-09-26T08:36:02.282Z,68.40
2022-09-26T08:38:17.815Z,68.10
2022-09-26T08:40:21.490Z,68.10
2022-09-26T08:42:42.209Z,68.20
2022-09-26T08:45:28.420Z,68.10
2022-09-26T08:47:53.182Z,68.10
2022-09-26T08:50:18.122Z,67.90
2022-09-26T08:52:28.778Z,68.20
2022-09-26T08:54:33.374Z,68.40
2022-09-26T08:56:36.579Z,68.30
2022-09-26T08:58:40.864Z,68.20
2022-09-26T09:00:42.631Z,68.20
2022-09-26T09:02:47.015Z,68.20
2022-09-26T09:04:54.012Z,68.00
2022-09-26T09:07:02.170Z,68.00
2022-09-26T09:09:04.018Z,67.90
2022-09-26T09:11:50.885Z,67.80
2022-09-26T09:14:11.777Z,67.80
2022-09-26T09:16:40.934Z,67.80
2022-09-26T09:19:11.910Z,67.80
2022-09-26T09:21:47.326Z,68.10
2022-09-26T09:24:09.517Z,68.00
2022-09-26T09:28:46.321Z,67.80
2022-09-26T09:30:51.472Z,67.60
2022-09-26T09:33:15.656Z,67.50
2022-09-26T09:35:27.588Z,67.40
2022-09-26T09:37:46.033Z,67.50
2022-09-26T09:40:13.089Z,67.40
2022-09-26T09:42:33.900Z,67.30
2022-09-26T09:44:46.719Z,67.40
2022-09-26T09:46:50.789Z,67.30
2022-09-26T09:48:55.413Z,67.40
2022-09-26T09:51:00.007Z,67.40
2022-09-26T09:53:24.893Z,67.30
2022-09-26T09:55:32.574Z,67.50
2022-09-26T09:57:34.475Z,67.60
2022-09-26T09:59:39.101Z,67.50
2022-09-26T10:01:43.876Z,67.40
2022-09-26T10:04:07.546Z,67.20
2022-09-26T10:06:44.630Z,66.80
2022-09-26T10:08:37.273Z,66.80
2022-09-26T10:11:00.604Z,66.80
2022-09-26T10:13:26.909Z,67.00
2022-09-26T10:16:01.334Z,66.80
2022-09-26T10:18:33.640Z,66.90
2022-09-26T10:20:52.727Z,66.80
2022-09-26T10:22:54.364Z,66.50
2022-09-26T10:25:01.486Z,66.50
2022-09-26T10:27:14.438Z,66.40
2022-09-26T10:29:18.173Z,66.60
2022-09-26T10:31:29.453Z,66.50
2022-09-26T10:33:48.454Z,66.30
2022-09-26T10:36:14.841Z,66.30
2022-09-26T10:38:22.665Z,66.10
2022-09-26T10:40:51.130Z,65.90
2022-09-26T10:42:52.898Z,64.80
2022-09-26T10:44:57.159Z,65.20
2022-09-26T10:47:21.824Z,65.20
2022-09-26T10:49:57.117Z,64.80
2022-09-26T10:52:22.774Z,65.70
2022-09-26T10:54:32.845Z,65.00
2022-09-26T10:56:37.194Z,65.10
2022-09-26T10:58:40.852Z,65.30
2022-09-26T11:00:45.644Z,64.90
2022-09-26T11:02:52.626Z,65.50
2022-09-26T11:05:16.180Z,65.20
2022-09-26T11:07:24.695Z,65.20
2022-09-26T11:09:35.929Z,65.00
2022-09-26T11:11:56.014Z,65.40
2022-09-26T11:14:05.089Z,65.50
2022-09-26T11:16:07.432Z,64.40
2022-09-26T11:18:19.910Z,64.50
2022-09-26T11:20:40.586Z,64.20
2022-09-26T11:22:47.648Z,64.20
2022-09-26T11:24:59.258Z,64.20
2022-09-26T11:27:19.989Z,63.70
2022-09-26T11:29:27.783Z,63.80
2022-09-26T11:31:42.930Z,63.70
2022-09-26T11:34:04.722Z,64.00
2022-09-26T11:36:19.669Z,64.20
2022-09-26T11:38:22.124Z,63.70
2022-09-26T11:40:36.354Z,63.30
2022-09-26T11:43:04.467Z,63.50
2022-09-26T11:45:18.572Z,63.60
2022-09-26T11:47:49.801Z,63.50
2022-09-26T11:50:30.267Z,63.80
2022-09-26T11:52:53.621Z,64.20
2022-09-26T11:55:15.014Z,64.50
2022-09-26T11:57:22.399Z,64.70
2022-09-26T11:59:24.094Z,64.80
2022-09-26T12:01:42.921Z,64.90
2022-09-26T12:03:53.506Z,64.70
2022-09-26T12:06:04.779Z,64.90
2022-09-26T12:08:15.701Z,64.80
2022-09-26T12:10:17.325Z,65.10
2022-09-26T12:12:40.551Z,65.40
2022-09-26T12:14:48.684Z,65.40
2022-09-26T12:16:55.283Z,65.50
2022-09-26T12:18:56.883Z,65.70
2022-09-26T12:21:07.397Z,65.80
2022-09-26T12:23:20.229Z,65.80
2022-09-26T12:25:22.817Z,65.80
2022-09-26T12:27:30.659Z,65.80
2022-09-26T12:29:37.176Z,65.70
2022-09-26T12:31:44.659Z,65.50
2022-09-26T12:34:00.385Z,65.50
2022-09-26T12:36:21.675Z,65.60
2022-09-26T12:38:32.755Z,65.80
2022-09-26T12:40:53.340Z,65.40
2022-09-26T12:43:21.409Z,65.10
2022-09-26T12:45:52.486Z,65.00
2022-09-26T12:47:58.044Z,64.90
2022-09-26T12:50:18.468Z,64.70
2022-09-26T12:52:27.425Z,64.70
2022-09-26T12:54:44.598Z,64.50
2022-09-26T12:57:04.703Z,64.30
2022-09-26T12:59:24.995Z,64.30
2022-09-26T13:01:47.436Z,64.40
2022-09-26T13:03:49.121Z,64.10
2022-09-26T13:05:50.775Z,63.80
2022-09-26T13:08:02.119Z,64.10
2022-09-26T13:10:17.037Z,63.80
2022-09-26T13:12:45.664Z,63.70
2022-09-26T13:14:57.221Z,63.50
2022-09-26T13:17:10.898Z,63.40
2022-09-26T13:19:31.416Z,63.10
2022-09-26T13:21:48.691Z,63.20
2022-09-26T13:23:59.144Z,63.20
2022-09-26T13:26:14.477Z,63.40
2022-09-26T13:28:19.415Z,63.50
2022-09-26T13:30:24.326Z,63.40
2022-09-26T13:32:27.242Z,63.50
2022-09-26T13:34:50.180Z,63.30
2022-09-26T13:36:52.516Z,63.30
2022-09-26T13:39:04.362Z,63.40
2022-09-26T13:41:25.252Z,63.60
2022-09-26T13:43:44.344Z,63.60
2022-09-26T13:45:48.983Z,63.80
2022-09-26T13:47:55.051Z,63.90
2022-09-26T13:50:12.635Z,64.10
2022-09-26T13:52:27.522Z,64.00
2022-09-26T13:54:55.692Z,64.00
2022-09-26T13:56:57.498Z,63.80
2022-09-26T13:59:04.145Z,63.60
2022-09-26T14:01:25.951Z,63.60
2022-09-26T14:03:28.220Z,63.60
2022-09-26T14:05:50.709Z,63.80
2022-09-26T14:08:11.801Z,64.10
2022-09-26T14:10:36.727Z,64.40
2022-09-26T14:12:58.429Z,64.60
2022-09-26T14:15:15.436Z,64.80
2022-09-26T14:17:37.100Z,65.10
2022-09-26T14:19:42.119Z,65.50
2022-09-26T14:22:05.637Z,65.80
2022-09-26T14:24:25.731Z,65.90
2022-09-26T14:26:28.240Z,66.00
2022-09-26T14:28:31.976Z,66.10
2022-09-26T14:30:36.198Z,66.10
2022-09-26T14:32:39.282Z,66.20
2022-09-26T14:34:47.050Z,66.10
2022-09-26T14:36:49.757Z,66.10
2022-09-26T14:38:52.637Z,66.10
2022-09-26T14:40:55.993Z,66.10
2022-09-26T14:43:13.110Z,66.40
2022-09-26T14:45:20.141Z,66.30
2022-09-26T14:47:22.123Z,66.40
2022-09-26T14:49:25.090Z,67.20
2022-09-26T14:51:29.286Z,66.30
2022-09-26T14:53:30.939Z,66.40
2022-09-26T14:55:33.126Z,66.30
2022-09-26T14:57:35.077Z,66.10
2022-09-26T14:59:38.203Z,66.10
2022-09-26T15:01:40.700Z,66.10
2022-09-26T15:03:42.641Z,66.20
2022-09-26T15:05:44.967Z,66.10
2022-09-26T15:07:47.678Z,66.20
2022-09-26T15:09:55.012Z,66.20
2022-09-26T15:12:02.305Z,66.40
2022-09-26T15:14:12.952Z,66.50
2022-09-26T15:16:27.156Z,66.60
2022-09-26T15:18:35.528Z,66.70
2022-09-26T15:20:42.723Z,66.90
2022-09-26T15:22:44.557Z,66.90
2022-09-26T15:24:46.395Z,66.80
2022-09-26T15:26:48.993Z,66.80
2022-09-26T15:28:51.567Z,66.80
2022-09-26T15:31:31.746Z,67.00
2022-09-26T15:33:36.952Z,67.10
2022-09-26T15:35:38.963Z,67.00
2022-09-26T15:37:42.196Z,67.00
2022-09-26T15:39:44.282Z,67.00
2022-09-26T15:42:04.434Z,67.00
2022-09-26T15:44:07.114Z,67.00
2022-09-26T15:46:27.034Z,66.90
2022-09-26T15:48:31.026Z,66.80
2022-09-26T15:50:39.693Z,66.50
2022-09-26T15:52:46.823Z,66.50
2022-09-26T15:54:48.600Z,66.50
2022-09-26T15:56:50.957Z,66.50
2022-09-26T15:58:58.950Z,66.50
2022-09-26T16:01:01.251Z,66.60
2022-09-26T16:03:20.230Z,66.60
2022-09-26T16:05:22.855Z,66.60
2022-09-26T16:07:28.575Z,66.60
2022-09-26T16:09:43.019Z,66.50
2022-09-26T16:11:50.034Z,66.60
2022-09-26T16:13:51.850Z,66.60
2022-09-26T16:16:04.035Z,66.70
2022-09-26T16:18:06.896Z,66.70
2022-09-26T16:20:11.764Z,66.60
2022-09-26T16:22:29.415Z,66.90
2022-09-26T16:24:34.270Z,66.70
2022-09-26T16:26:40.371Z,66.80
2022-09-26T16:28:44.750Z,66.60
2022-09-26T16:30:59.961Z,66.80
2022-09-26T16:33:04.713Z,66.50
2022-09-26T16:35:19.571Z,66.60
2022-09-26T16:37:23.030Z,66.60
2022-09-26T16:39:24.779Z,66.60
2022-09-26T16:44:08.729Z,66.70
2022-09-26T16:46:35.535Z,66.70
2022-09-26T16:48:52.654Z,66.90
2022-09-26T16:51:39.768Z,66.80
2022-09-26T16:53:46.250Z,66.80
2022-09-26T16:55:47.992Z,66.70
2022-09-26T16:57:56.859Z,66.80
2022-09-26T17:00:21.643Z,66.80
2022-09-26T17:02:23.332Z,66.80
2022-09-26T17:04:32.189Z,66.70
2022-09-26T17:06:37.156Z,66.50
2022-09-26T17:08:38.863Z,66.50
2022-09-26T17:10:41.469Z,66.60
2022-09-26T17:12:43.210Z,66.70
2022-09-26T17:14:46.933Z,66.80
2022-09-26T17:16:55.368Z,66.90
2022-09-26T17:18:57.742Z,67.10
2022-09-26T17:20:59.583Z,67.10
2022-09-26T17:23:16.853Z,67.10
2022-09-26T17:25:25.186Z,67.00
2022-09-26T17:27:28.689Z,67.30
2022-09-26T17:29:33.246Z,67.20
2022-09-26T17:31:35.050Z,67.20
2022-09-26T17:33:40.365Z,67.20
2022-09-26T17:35:42.248Z,67.20
2022-09-26T17:37:43.953Z,67.20
2022-09-26T17:39:46.026Z,67.30
2022-09-26T17:41:48.776Z,67.30
2022-09-26T17:43:58.225Z,67.60
2022-09-26T17:46:00.534Z,67.40
2022-09-26T17:48:04.120Z,67.40
2022-09-26T17:50:06.820Z,67.70
2022-09-26T17:52:17.547Z,67.50
2022-09-26T17:54:29.518Z,67.50
2022-09-26T17:56:31.231Z,67.40
2022-09-26T17:58:37.000Z,67.30
2022-09-26T18:00:40.291Z,67.50
2022-09-26T18:02:47.271Z,67.50
2022-09-26T18:04:51.242Z,67.40
2022-09-26T18:06:54.297Z,67.70
2022-09-26T18:08:59.563Z,67.50
2022-09-26T18:11:02.521Z,67.40
2022-09-26T18:13:12.769Z,67.50
2022-09-26T18:15:17.148Z,67.50
2022-09-26T18:17:18.925Z,67.80
2022-09-26T18:19:21.101Z,67.50
2022-09-26T18:21:24.143Z,67.20
2022-09-26T18:23:28.447Z,67.20
2022-09-26T18:25:30.265Z,67.20
2022-09-26T18:27:36.741Z,67.30
2022-09-26T18:29:40.354Z,67.40
2022-09-26T18:31:43.265Z,67.60
2022-09-26T18:33:45.050Z,67.70
2022-09-26T18:35:48.760Z,67.80
2022-09-26T18:37:55.676Z,67.80
2022-09-26T18:40:02.984Z,67.50
2022-09-26T18:42:09.144Z,67.50
2022-09-26T18:44:16.025Z,67.40
2022-09-26T18:46:18.399Z,67.50
2022-09-26T18:48:38.197Z,67.50
2022-09-26T18:50:40.221Z,67.50
2022-09-26T18:52:42.463Z,68.00
2022-09-26T18:54:45.042Z,67.80
2022-09-26T18:57:05.535Z,68.10
2022-09-26T18:59:10.023Z,68.00
2022-09-26T19:01:14.915Z,67.80
2022-09-26T19:03:18.411Z,67.60
2022-09-26T19:05:20.164Z,67.90
2022-09-26T19:07:22.115Z,68.00
2022-09-26T19:09:24.839Z,67.70
2022-09-26T19:11:27.277Z,67.50
2022-09-26T19:13:28.994Z,67.20
2022-09-26T19:15:30.875Z,67.30
2022-09-26T19:17:32.616Z,67.00
2022-09-26T19:19:34.336Z,67.00
2022-09-26T19:21:42.269Z,67.00
2022-09-26T19:23:44.638Z,67.00
2022-09-26T19:25:46.369Z,67.20
2022-09-26T19:27:50.225Z,66.90
2022-09-26T19:29:54.718Z,66.80
2022-09-26T19:31:56.843Z,66.60
2022-09-26T19:33:58.631Z,66.70
2022-09-26T19:36:00.463Z,66.90
2022-09-26T19:38:03.188Z,67.10
2022-09-26T19:40:15.616Z,67.20
2022-09-26T19:42:17.386Z,67.70
2022-09-26T19:44:19.075Z,67.80
2022-09-26T19:46:27.411Z,67.80
2022-09-26T19:48:29.472Z,67.30
2022-09-26T19:50:33.264Z,67.50
2022-09-26T19:52:35.676Z,67.50
2022-09-26T19:54:37.708Z,67.50
2022-09-26T19:56:39.369Z,67.80
2022-09-26T19:58:41.167Z,67.70
2022-09-26T20:00:44.755Z,68.00
2022-09-26T20:02:46.823Z,68.00
2022-09-26T20:04:48.804Z,67.80
2022-09-26T20:06:50.642Z,67.40
2022-09-26T20:08:56.410Z,67.60
2022-09-26T20:11:01.462Z,67.70
2022-09-26T20:13:03.148Z,67.60
2022-09-26T20:15:05.064Z,67.70
2022-09-26T20:17:25.915Z,67.60
2022-09-26T20:19:28.418Z,67.70
2022-09-26T20:21:30.681Z,67.60
2022-09-26T20:23:32.437Z,67.50
2022-09-26T20:25:35.995Z,67.30
2022-09-26T20:27:37.662Z,67.40
2022-09-26T20:29:58.081Z,67.20
2022-09-26T20:32:01.951Z,67.40
2022-09-26T20:34:03.659Z,67.20
2022-09-26T20:36:06.605Z,67.00
2022-09-26T20:38:25.241Z,67.10
2022-09-26T20:40:27.326Z,67.30
2022-09-26T20:42:33.219Z,67.60
2022-09-26T20:44:35.920Z,67.30
2022-09-26T20:46:45.752Z,67.10
2022-09-26T20:48:48.705Z,67.10
2022-09-26T20:50:51.056Z,67.40
2022-09-26T20:52:52.753Z,67.30
2022-09-26T20:54:55.180Z,67.20
2022-09-26T20:56:57.574Z,67.40
2022-09-26T20:58:59.259Z,67.30
2022-09-26T21:01:01.674Z,67.40
2022-09-26T21:03:03.659Z,67.30
2022-09-26T21:05:16.386Z,67.30
2022-09-26T21:07:18.562Z,67.20
2022-09-26T21:09:20.654Z,67.30
2022-09-26T21:11:22.321Z,67.70
2022-09-26T21:13:23.961Z,67.90
2022-09-26T21:15:26.734Z,68.10
2022-09-26T21:17:28.609Z,68.40
2022-09-26T21:19:32.525Z,68.40
2022-09-26T21:21:43.300Z,68.10
2022-09-26T21:23:58.406Z,68.20
2022-09-26T21:26:00.033Z,68.40
2022-09-26T21:28:05.935Z,68.10
2022-09-26T21:30:11.935Z,67.70
2022-09-26T21:32:17.043Z,67.70
2022-09-26T21:34:20.537Z,67.50
2022-09-26T21:36:22.980Z,67.60
2022-09-26T21:38:25.306Z,67.40
2022-09-26T21:40:29.018Z,67.40
2022-09-26T21:42:30.834Z,67.50
2022-09-26T21:44:34.415Z,67.40
2022-09-26T21:46:36.199Z,67.20
2022-09-26T21:48:37.910Z,66.90
2022-09-26T21:50:44.145Z,67.10
2022-09-26T21:52:50.928Z,67.70
2022-09-26T21:54:52.625Z,67.60
2022-09-26T21:57:02.322Z,67.70
2022-09-26T21:59:07.127Z,67.70
2022-09-26T22:01:08.975Z,67.70
2022-09-26T22:03:10.656Z,67.80
2022-09-26T22:05:12.630Z,67.80
2022-09-26T22:07:14.514Z,67.90
2022-09-26T22:09:16.249Z,68.00
2022-09-26T22:11:18.206Z,68.00
2022-09-26T22:13:19.903Z,68.40
2022-09-26T22:15:21.731Z,68.50
2022-09-26T22:17:23.364Z,68.60
2022-09-26T22:19:27.243Z,68.60
2022-09-26T22:21:28.882Z,68.60
2022-09-26T22:23:33.559Z,68.50
2022-09-26T22:25:36.962Z,69.00
2022-09-26T22:27:41.386Z,68.00
2022-09-26T22:29:43.118Z,68.20
2022-09-26T22:31:44.819Z,68.30
2022-09-26T22:33:46.665Z,68.40
2022-09-26T22:35:48.875Z,68.40
2022-09-26T22:37:50.536Z,68.10
2022-09-26T22:39:53.178Z,68.00
2022-09-26T22:41:55.283Z,67.90
2022-09-26T22:43:57.472Z,68.30
2022-09-26T22:46:12.209Z,68.20
2022-09-26T22:48:13.851Z,68.40
2022-09-26T22:50:15.611Z,68.10
2022-09-26T22:52:17.376Z,68.20
2022-09-26T22:54:19.506Z,68.30
2022-09-26T22:56:21.137Z,68.70
2022-09-26T22:58:23.005Z,68.80
2022-09-26T23:00:24.655Z,68.80
2022-09-26T23:02:26.346Z,68.80
2022-09-26T23:04:46.701Z,68.50
2022-09-26T23:06:48.361Z,68.70
2022-09-26T23:08:50.265Z,68.80
2022-09-26T23:10:52.663Z,69.20
2022-09-26T23:12:54.280Z,68.80
2022-09-26T23:14:55.932Z,69.00
2022-09-26T23:16:57.644Z,68.80
2022-09-26T23:18:59.353Z,69.20
2022-09-26T23:21:05.178Z,69.10
2022-09-26T23:23:07.239Z,69.20
2022-09-26T23:25:09.213Z,69.00
2022-09-26T23:27:10.913Z,68.80
2022-09-26T23:29:12.987Z,68.70
2022-09-26T23:31:14.798Z,69.10
2022-09-26T23:33:16.507Z,69.10
2022-09-26T23:35:18.303Z,69.20
2022-09-26T23:37:19.937Z,69.20
2022-09-26T23:39:21.676Z,69.10
2022-09-26T23:41:23.577Z,69.10
2022-09-26T23:43:25.211Z,69.40
2022-09-26T23:45:27.055Z,69.40
2022-09-26T23:47:28.716Z,69.10
2022-09-26T23:49:30.604Z,69.30
2022-09-26T23:51:32.298Z,69.20
2022-09-26T23:53:34.063Z,69.10
2022-09-26T23:55:35.719Z,69.30
2022-09-26T23:57:37.484Z,69.20
2022-09-26T23:59:39.117Z,69.30
